Time;durP1;ratioP1;P1;durP2;ratioP2;P2;SDS_P1;SDS_P2;PMS_P1;PMS_P2;Temp;Humidity;BMP_temperature;BMP_pressure;BME280_temperature;BME280_humidity;BME280_pressure;Samples;Min_cycle;Max_cycle;Signal;HPM_P1;HPM_P2
2023/10/08 00:01:22;;;;;;;0.70;0.25;;;14.60;99.90;;;;;;4822951;29;20054;-79
2023/10/08 00:03:49;;;;;;;0.20;0.10;;;14.50;99.90;;;;;;4818448;29;20050;-79
2023/10/08 00:06:20;;;;;;;0.32;0.13;;;14.50;99.90;;;;;;4818829;29;20046;-79
2023/10/08 00:08:46;;;;;;;0.22;0.22;;;14.40;99.90;;;;;;4809867;29;20082;-79
2023/10/08 00:11:11;;;;;;;0.40;0.20;;;14.50;99.90;;;;;;4848848;29;20568;-79
2023/10/08 00:13:41;;;;;;;1.10;0.25;;;14.50;99.90;;;;;;4806339;29;21178;-79
2023/10/08 00:16:10;;;;;;;1.10;0.20;;;14.50;99.90;;;;;;4805436;29;20057;-79
2023/10/08 00:18:38;;;;;;;1.23;0.10;;;14.40;99.90;;;;;;4821708;29;20090;-80
2023/10/08 00:21:16;;;;;;;1.80;0.20;;;14.40;99.90;;;;;;4806444;29;20692;-78
2023/10/08 00:24:01;;;;;;;1.35;0.20;;;15.00;99.90;;;;;;4841284;29;20092;-79
2023/10/08 00:26:29;;;;;;;3.30;0.30;;;14.40;99.90;;;;;;4851476;29;20077;-79
2023/10/08 00:29:00;;;;;;;4.25;0.20;;;14.30;99.90;;;;;;4819666;29;20042;-79
2023/10/08 00:31:31;;;;;;;0.65;0.20;;;14.90;99.90;;;;;;4836450;29;20043;-79
2023/10/08 00:33:59;;;;;;;1.95;0.28;;;14.30;99.90;;;;;;4820803;29;20051;-78
2023/10/08 00:36:25;;;;;;;0.32;0.20;;;14.20;99.90;;;;;;4850279;29;20429;-80
2023/10/08 00:38:58;;;;;;;0.93;0.30;;;14.20;99.90;;;;;;4816587;29;20061;-79
2023/10/08 00:41:28;;;;;;;1.15;0.40;;;14.30;99.90;;;;;;4836292;29;20053;-79
2023/10/08 00:43:59;;;;;;;1.83;0.38;;;14.20;99.90;;;;;;4846141;29;20046;-79
2023/10/08 00:46:30;;;;;;;0.98;0.20;;;14.70;99.90;;;;;;4821336;29;20050;-80
2023/10/08 00:48:58;;;;;;;1.30;0.30;;;14.20;99.90;;;;;;4850359;29;20046;-80
2023/10/08 00:51:27;;;;;;;3.05;0.40;;;14.20;99.90;;;;;;4835849;29;20106;-80
2023/10/08 00:54:06;;;;;;;1.30;0.40;;;14.20;99.90;;;;;;4817488;29;20127;-80
2023/10/08 00:59:21;;;;;;;1.42;0.13;;;14.20;99.90;;;;;;4853941;29;20499;-79
2023/10/08 01:01:51;;;;;;;2.70;0.30;;;14.20;99.90;;;;;;4822657;29;20411;-79
2023/10/08 01:04:26;;;;;;;0.55;0.10;;;14.20;99.90;;;;;;4816510;29;20519;-80
2023/10/08 01:07:01;;;;;;;0.55;0.40;;;14.20;99.90;;;;;;4820547;29;20042;-79
2023/10/08 01:10:10;;;;;;;2.60;0.32;;;14.20;99.90;;;;;;4821604;29;20054;-80
2023/10/08 01:12:27;;;;;;;0.35;0.10;;;14.30;99.90;;;;;;4841750;29;20042;-79
2023/10/08 01:15:13;;;;;;;0.50;0.20;;;14.80;99.90;;;;;;4820459;29;20057;-79
2023/10/08 01:17:47;;;;;;;3.20;0.47;;;14.30;99.90;;;;;;4813729;29;20054;-79
2023/10/08 01:23:03;;;;;;;0.28;0.10;;;14.20;99.90;;;;;;4842029;29;19929;-79
2023/10/08 01:25:29;;;;;;;0.30;0.10;;;14.20;99.90;;;;;;4814365;29;20051;-79
2023/10/08 01:28:01;;;;;;;1.20;0.10;;;14.20;99.90;;;;;;4818505;29;20057;-79
2023/10/08 01:30:34;;;;;;;2.33;0.15;;;14.10;99.90;;;;;;4820482;29;20042;-80
2023/10/08 01:33:02;;;;;;;0.43;0.10;;;14.10;99.90;;;;;;4819235;29;20567;-79
2023/10/08 01:35:31;;;;;;;1.92;0.28;;;14.10;99.90;;;;;;4849715;29;20061;-79
2023/10/08 01:37:59;;;;;;;0.88;0.10;;;14.10;99.90;;;;;;4835677;29;20121;-79
2023/10/08 01:40:25;;;;;;;1.20;0.10;;;14.10;99.90;;;;;;4820092;29;20042;-78
2023/10/08 01:42:51;;;;;;;1.10;0.25;;;14.10;99.90;;;;;;4819192;29;20054;-79
2023/10/08 01:45:18;;;;;;;0.47;0.20;;;14.10;99.90;;;;;;4835321;29;20091;-80
2023/10/08 01:47:44;;;;;;;2.90;0.20;;;14.10;99.90;;;;;;4819021;29;20080;-80
2023/10/08 01:50:21;;;;;;;1.77;0.20;;;14.10;99.90;;;;;;4833550;29;20046;-79
2023/10/08 01:52:49;;;;;;;3.65;0.38;;;14.10;99.90;;;;;;4803837;29;20069;-80
2023/10/08 01:55:19;;;;;;;2.53;0.20;;;14.30;99.90;;;;;;4819302;29;20053;-79
2023/10/08 01:57:45;;;;;;;2.25;0.20;;;14.10;99.90;;;;;;4817348;29;20125;-80
2023/10/08 02:00:13;;;;;;;2.17;0.40;;;14.10;99.90;;;;;;4816401;29;20127;-80
2023/10/08 02:02:40;;;;;;;0.70;0.20;;;14.10;99.90;;;;;;4819979;29;20467;-79
2023/10/08 02:05:14;;;;;;;1.17;0.20;;;14.10;99.90;;;;;;4834856;29;20062;-79
2023/10/08 02:07:42;;;;;;;1.88;0.50;;;14.10;99.90;;;;;;4819784;29;20491;-80
2023/10/08 02:10:10;;;;;;;0.95;0.20;;;14.10;99.90;;;;;;4811417;29;20050;-80
2023/10/08 02:12:39;;;;;;;2.17;0.40;;;14.10;99.90;;;;;;4819211;29;20755;-80
2023/10/08 02:15:06;;;;;;;2.70;0.47;;;14.00;99.90;;;;;;4814545;29;20058;-80
2023/10/08 02:17:32;;;;;;;2.28;0.32;;;14.00;99.90;;;;;;4819188;29;20423;-81
2023/10/08 02:19:58;;;;;;;2.03;0.22;;;14.00;99.90;;;;;;4815290;29;20050;-80
2023/10/08 02:22:24;;;;;;;3.22;0.40;;;14.00;99.90;;;;;;4826767;29;20050;-80
2023/10/08 02:24:50;;;;;;;5.97;0.40;;;13.90;99.90;;;;;;4818758;29;20046;-80
2023/10/08 02:27:16;;;;;;;3.30;0.55;;;13.90;99.90;;;;;;4829055;29;20035;-80
2023/10/08 02:29:42;;;;;;;3.92;0.40;;;13.90;99.90;;;;;;4847255;29;20404;-80
2023/10/08 02:32:09;;;;;;;2.35;0.50;;;15.20;99.90;;;;;;4847458;29;20046;-79
2023/10/08 02:34:35;;;;;;;2.03;0.32;;;13.80;99.90;;;;;;4826317;29;20046;-79
2023/10/08 02:37:03;;;;;;;1.45;0.17;;;13.80;99.90;;;;;;4802442;29;20055;-80
2023/10/08 02:39:32;;;;;;;2.03;0.20;;;13.80;99.90;;;;;;4819118;29;20042;-79
2023/10/08 02:42:01;;;;;;;1.92;0.28;;;13.80;99.90;;;;;;4801576;29;20498;-79
2023/10/08 02:44:28;;;;;;;3.78;0.35;;;13.80;99.90;;;;;;4842172;29;20042;-79
2023/10/08 02:46:54;;;;;;;2.28;0.38;;;13.80;99.90;;;;;;4818065;29;20121;-80
2023/10/08 02:49:22;;;;;;;6.38;0.40;;;13.70;99.90;;;;;;4826288;29;20423;-80
2023/10/08 02:51:51;;;;;;;1.20;0.40;;;13.70;99.90;;;;;;4818382;29;20050;-80
2023/10/08 02:54:23;;;;;;;3.42;0.50;;;12.60;99.90;;;;;;4803708;29;20051;-80
2023/10/08 02:56:57;;;;;;;3.28;0.55;;;13.70;99.90;;;;;;4814658;29;20042;-79
2023/10/08 02:59:23;;;;;;;2.15;0.40;;;13.80;99.90;;;;;;4818506;29;20058;-80
2023/10/08 03:01:55;;;;;;;1.98;0.45;;;13.70;99.90;;;;;;4803134;29;20053;-79
2023/10/08 03:04:22;;;;;;;1.33;0.30;;;13.70;99.90;;;;;;4802448;29;20491;-80
2023/10/08 03:06:54;;;;;;;2.58;0.50;;;13.70;99.90;;;;;;4817224;29;20054;-79
2023/10/08 03:09:23;;;;;;;2.45;0.52;;;13.60;99.90;;;;;;4841756;29;20520;-80
2023/10/08 03:11:49;;;;;;;5.03;0.70;;;13.60;99.90;;;;;;4843012;29;20046;-79
2023/10/08 03:14:21;;;;;;;3.85;0.30;;;13.70;99.90;;;;;;4817808;29;20123;-79
2023/10/08 03:16:52;;;;;;;1.95;0.45;;;13.60;99.90;;;;;;4825792;29;20068;-79
2023/10/08 03:19:19;;;;;;;4.10;0.60;;;13.60;99.90;;;;;;4818182;29;20051;-80
2023/10/08 03:21:56;;;;;;;2.33;0.38;;;14.10;99.90;;;;;;4848251;29;20054;-79
2023/10/08 03:27:12;;;;;;;2.72;0.50;;;13.90;99.90;;;;;;4842969;29;20127;-79
2023/10/08 03:29:41;;;;;;;3.17;0.30;;;13.40;99.90;;;;;;4840672;29;20073;-79
2023/10/08 03:32:17;;;;;;;1.60;0.10;;;13.50;99.90;;;;;;4817286;29;20049;-79
2023/10/08 03:34:48;;;;;;;3.67;0.30;;;13.50;99.90;;;;;;4830805;29;20141;-79
2023/10/08 03:37:21;;;;;;;2.20;0.40;;;13.60;99.90;;;;;;4838971;29;20278;-79
2023/10/08 03:39:51;;;;;;;3.33;0.50;;;14.30;99.90;;;;;;4835262;29;20106;-80
2023/10/08 03:42:22;;;;;;;1.90;0.43;;;13.60;99.90;;;;;;4803907;29;20054;-79
2023/10/08 03:44:52;;;;;;;2.55;0.45;;;13.60;99.90;;;;;;4826785;29;20042;-79
2023/10/08 03:47:26;;;;;;;3.10;0.32;;;13.60;99.90;;;;;;4810500;29;20093;-79
2023/10/08 03:49:53;;;;;;;3.00;0.32;;;13.50;99.90;;;;;;4811981;29;20114;-79
2023/10/08 03:52:23;;;;;;;2.72;0.40;;;14.40;99.90;;;;;;4807883;29;20050;-80
2023/10/08 03:55:03;;;;;;;1.30;0.28;;;13.50;99.90;;;;;;4829906;29;20042;-80
2023/10/08 03:57:41;;;;;;;3.50;0.55;;;13.50;99.90;;;;;;4840119;29;20074;-80
2023/10/08 04:00:12;;;;;;;3.40;0.30;;;13.50;99.90;;;;;;4840160;29;20075;-79
2023/10/08 04:02:46;;;;;;;2.70;0.40;;;13.60;99.90;;;;;;4817764;29;20077;-80
2023/10/08 04:06:03;;;;;;;2.63;0.70;;;13.60;99.90;;;;;;4833969;29;20050;-80
2023/10/08 04:13:09;;;;;;;1.95;0.43;;;13.60;99.90;;;;;;4847435;29;20114;-79
2023/10/08 04:15:40;;;;;;;2.17;0.55;;;13.70;99.90;;;;;;4832890;29;20090;-81
2023/10/08 04:18:09;;;;;;;5.70;0.47;;;14.70;99.90;;;;;;4819680;29;20108;-80
2023/10/08 04:20:38;;;;;;;4.40;0.60;;;13.70;99.90;;;;;;4817193;29;20141;-80
2023/10/08 04:23:13;;;;;;;2.92;0.47;;;13.70;99.90;;;;;;4818004;29;20504;-80
2023/10/08 04:25:39;;;;;;;5.53;0.60;;;13.70;99.90;;;;;;4808627;29;20081;-80
2023/10/08 04:28:06;;;;;;;2.20;0.60;;;14.30;99.90;;;;;;4805083;29;20177;-79
2023/10/08 04:30:36;;;;;;;2.20;0.55;;;13.70;99.90;;;;;;4810548;29;20065;-80
2023/10/08 04:33:09;;;;;;;4.03;0.40;;;13.70;99.90;;;;;;4829587;29;20058;-80
2023/10/08 04:38:22;;;;;;;3.60;0.52;;;13.70;99.90;;;;;;4831674;29;20054;-79
2023/10/08 04:40:50;;;;;;;3.00;0.63;;;13.70;99.90;;;;;;4829220;29;20050;-79
2023/10/08 04:43:24;;;;;;;2.08;0.35;;;13.70;99.90;;;;;;4801952;29;20046;-79
2023/10/08 04:45:51;;;;;;;4.07;1.25;;;13.70;99.90;;;;;;4847277;29;20121;-80
2023/10/08 04:48:20;;;;;;;3.33;0.50;;;13.70;99.90;;;;;;4817557;29;20122;-80
2023/10/08 04:50:58;;;;;;;4.18;0.80;;;13.60;99.90;;;;;;4808109;29;20506;-79
2023/10/08 04:53:35;;;;;;;5.05;1.00;;;13.40;99.90;;;;;;4834365;29;20466;-79
2023/10/08 04:56:13;;;;;;;4.47;0.60;;;13.70;99.90;;;;;;4839685;29;20038;-80
2023/10/08 04:58:40;;;;;;;3.90;0.63;;;13.70;99.90;;;;;;4808871;29;20046;-79
2023/10/08 05:06:50;;;;;;;1.98;0.50;;;14.30;99.90;;;;;;4807671;29;20117;-79
2023/10/08 05:14:34;;;;;;;3.33;0.88;;;13.60;99.90;;;;;;4820401;29;20157;-78
2023/10/08 05:17:03;;;;;;;2.78;0.60;;;14.00;99.90;;;;;;4847988;29;20534;-79
2023/10/08 05:38:16;;;;;;;4.82;1.48;;;13.60;99.90;;;;;;4815403;29;20104;-79
2023/10/08 05:49:02;;;;;;;3.92;0.80;;;13.60;99.90;;;;;;4849296;29;20058;-78
2023/10/08 05:57:38;;;;;;;4.78;0.82;;;13.40;99.90;;;;;;4840764;29;20085;-78
2023/10/08 06:00:17;;;;;;;4.53;0.90;;;13.50;99.90;;;;;;4818335;29;20053;-78
2023/10/08 06:13:04;;;;;;;6.28;0.90;;;13.50;99.90;;;;;;4841806;29;20054;-79
2023/10/08 06:16:05;;;;;;;3.95;1.00;;;13.50;99.90;;;;;;4848753;29;20050;-78
2023/10/08 06:18:32;;;;;;;6.13;1.10;;;13.50;99.90;;;;;;4819403;29;20057;-78
2023/10/08 06:21:11;;;;;;;6.10;1.38;;;13.50;99.90;;;;;;4815080;29;20042;-78
2023/10/08 06:23:41;;;;;;;5.78;1.13;;;13.50;99.90;;;;;;4819264;29;20046;-78
2023/10/08 06:28:38;;;;;;;6.55;0.95;;;13.40;99.90;;;;;;4815011;29;20528;-78
2023/10/08 06:31:11;;;;;;;6.18;1.40;;;13.90;99.90;;;;;;4834800;29;20058;-77
2023/10/08 06:33:38;;;;;;;4.13;1.05;;;13.70;99.90;;;;;;4798531;29;20050;-78
2023/10/08 06:38:40;;;;;;;6.82;0.95;;;13.40;99.90;;;;;;4849544;29;20061;-78
2023/10/08 06:43:48;;;;;;;6.00;1.70;;;13.40;99.90;;;;;;4844797;29;20113;-78
2023/10/08 06:46:14;;;;;;;4.13;0.90;;;13.50;99.90;;;;;;4849122;29;20050;-78
2023/10/08 06:48:45;;;;;;;6.82;1.08;;;13.50;99.90;;;;;;4819629;29;20053;-78
2023/10/08 06:51:15;;;;;;;4.45;1.35;;;13.50;99.90;;;;;;4834710;29;20049;-78
2023/10/08 06:53:44;;;;;;;3.53;0.82;;;13.50;99.90;;;;;;4826802;29;20058;-78
2023/10/08 06:56:12;;;;;;;3.88;1.23;;;13.50;99.90;;;;;;4811103;29;20077;-78
2023/10/08 06:58:39;;;;;;;4.78;0.93;;;13.50;99.90;;;;;;4818337;29;20049;-78
2023/10/08 07:01:04;;;;;;;7.10;1.52;;;14.50;99.90;;;;;;4804246;29;20046;-78
2023/10/08 07:03:31;;;;;;;4.85;1.27;;;14.90;99.90;;;;;;4818170;29;20053;-80
2023/10/08 07:05:59;;;;;;;7.38;1.20;;;13.60;99.90;;;;;;4809889;29;20046;-80
2023/10/08 07:08:26;;;;;;;2.42;1.25;;;13.60;99.90;;;;;;4819609;29;20124;-79
2023/10/08 07:10:53;;;;;;;11.65;1.95;;;13.60;99.90;;;;;;4820547;29;20034;-77
2023/10/08 07:13:24;;;;;;;7.57;3.30;;;13.60;99.90;;;;;;4803355;29;20123;-78
2023/10/08 07:15:51;;;;;;;5.15;1.17;;;13.60;99.90;;;;;;4827100;29;20050;-79
2023/10/08 07:18:26;;;;;;;4.75;1.20;;;13.60;99.90;;;;;;4826644;29;20049;-78
2023/10/08 07:20:54;;;;;;;5.82;1.30;;;13.60;99.90;;;;;;4841256;29;20491;-76
2023/10/08 07:23:29;;;;;;;6.60;0.90;;;13.70;99.90;;;;;;4819509;29;20522;-77
2023/10/08 07:26:11;;;;;;;5.82;1.33;;;13.60;99.90;;;;;;4837654;29;20179;-78
2023/10/08 07:28:41;;;;;;;10.43;1.42;;;13.50;99.90;;;;;;4825532;29;20082;-81
2023/10/08 07:31:21;;;;;;;5.28;1.30;;;13.60;99.90;;;;;;4829406;29;20043;-78
2023/10/08 07:34:15;;;;;;;5.35;1.27;;;13.60;99.90;;;;;;4833373;29;20119;-78
2023/10/08 07:36:42;;;;;;;6.85;0.93;;;14.30;99.90;;;;;;4828929;29;20572;-78
2023/10/08 07:39:08;;;;;;;8.82;1.40;;;13.60;99.90;;;;;;4812780;29;20133;-86
2023/10/08 07:41:35;;;;;;;10.63;1.30;;;13.40;99.90;;;;;;4824971;29;20086;-85
2023/10/08 07:44:01;;;;;;;10.00;1.35;;;13.60;99.90;;;;;;4821389;29;20508;-84
2023/10/08 07:46:27;;;;;;;6.65;1.05;;;13.70;99.90;;;;;;4801817;29;20121;-81
2023/10/08 07:48:58;;;;;;;4.72;1.17;;;13.70;99.90;;;;;;4831936;29;20046;-85
2023/10/08 07:51:24;;;;;;;8.48;1.67;;;13.70;99.90;;;;;;4830138;29;20042;-83
2023/10/08 07:53:55;;;;;;;8.90;1.58;;;13.70;99.90;;;;;;4793598;29;20038;-80
2023/10/08 07:56:22;;;;;;;5.78;1.13;;;13.70;99.90;;;;;;4830360;29;20091;-79
2023/10/08 07:58:48;;;;;;;3.92;1.15;;;13.90;99.90;;;;;;4844668;29;20419;-79
2023/10/08 08:01:14;;;;;;;7.93;1.13;;;13.60;99.90;;;;;;4833242;29;20046;-81
2023/10/08 08:03:41;;;;;;;12.90;1.65;;;13.60;99.90;;;;;;4803597;29;20053;-85
2023/10/08 08:06:09;;;;;;;6.47;1.27;;;13.60;99.90;;;;;;4831320;29;20107;-79
2023/10/08 08:08:37;;;;;;;7.47;1.77;;;13.50;99.90;;;;;;4835012;29;20089;-83
2023/10/08 08:11:05;;;;;;;7.43;1.38;;;13.50;99.90;;;;;;4832332;29;20046;-82
2023/10/08 08:13:33;;;;;;;5.75;1.20;;;14.40;99.90;;;;;;4842901;29;20488;-79
2023/10/08 08:16:11;;;;;;;8.07;1.45;;;13.50;99.90;;;;;;4825279;29;20597;-85
2023/10/08 08:18:38;;;;;;;9.15;1.52;;;13.50;99.90;;;;;;4831954;29;20495;-83
2023/10/08 08:21:13;;;;;;;9.25;1.38;;;13.50;99.90;;;;;;4800870;29;20062;-84
2023/10/08 08:23:40;;;;;;;13.43;4.90;;;13.90;99.90;;;;;;4832717;29;20046;-79
2023/10/08 08:26:12;;;;;;;7.07;1.45;;;13.40;99.90;;;;;;4799813;29;20100;-80
2023/10/08 08:28:38;;;;;;;9.00;1.70;;;13.40;99.90;;;;;;4821912;29;20062;-86
2023/10/08 08:31:13;;;;;;;10.82;1.27;;;13.60;99.90;;;;;;4801698;29;20474;-85
2023/10/08 08:36:25;;;;;;;8.73;1.65;;;13.40;99.90;;;;;;4820599;29;20046;-79
2023/10/08 08:38:51;;;;;;;13.35;2.38;;;13.50;99.90;;;;;;4472575;29;10000199;-80
2023/10/08 08:41:18;;;;;;;11.98;2.13;;;13.40;99.90;;;;;;4827830;29;20298;-83
2023/10/08 08:43:58;;;;;;;11.07;1.50;;;13.50;99.90;;;;;;4820441;29;20062;-82
2023/10/08 08:46:36;;;;;;;8.70;1.75;;;13.50;99.90;;;;;;4843803;29;20073;-83
2023/10/08 08:49:11;;;;;;;3.60;1.17;;;13.60;99.90;;;;;;4811926;29;20046;-82
2023/10/08 08:51:41;;;;;;;12.85;1.77;;;13.60;99.90;;;;;;4835056;29;20049;-80
2023/10/08 08:54:06;;;;;;;5.53;1.38;;;13.60;99.90;;;;;;4817797;29;20499;-81
2023/10/08 08:56:38;;;;;;;5.30;0.93;;;13.60;99.90;;;;;;4802409;29;20049;-82
2023/10/08 08:59:11;;;;;;;6.97;1.23;;;12.60;99.90;;;;;;4802376;29;20141;-81
2023/10/08 09:01:38;;;;;;;8.53;3.63;;;13.60;99.90;;;;;;4826684;29;20568;-81
2023/10/08 09:04:05;;;;;;;6.60;1.42;;;13.70;99.90;;;;;;4801864;29;20107;-80
2023/10/08 09:06:39;;;;;;;9.95;1.50;;;13.70;99.90;;;;;;4830868;29;20046;-78
2023/10/08 09:09:21;;;;;;;10.20;1.90;;;13.70;99.90;;;;;;4839741;29;20050;-77
2023/10/08 09:11:52;;;;;;;13.70;1.33;;;13.80;99.90;;;;;;4823737;29;20043;-78
2023/10/08 09:14:25;;;;;;;11.30;1.55;;;13.80;99.90;;;;;;4802021;29;20130;-78
2023/10/08 09:16:51;;;;;;;6.45;1.35;;;13.80;99.90;;;;;;4800144;29;20061;-79
2023/10/08 09:19:22;;;;;;;13.63;1.98;;;13.90;99.90;;;;;;4821676;29;20127;-78
2023/10/08 09:22:06;;;;;;;7.15;1.42;;;13.90;99.90;;;;;;4833648;29;20443;-79
2023/10/08 09:24:41;;;;;;;;;;;13.90;99.90;;;;;;4827873;29;20058;-83
2023/10/08 09:27:15;;;;;;;6.00;1.20;;;13.90;99.90;;;;;;4831268;29;19959;-81
2023/10/08 09:29:41;;;;;;;;;;;14.00;99.90;;;;;;4797134;29;20047;-85
2023/10/08 09:32:13;;;;;;;7.38;1.40;;;14.00;99.90;;;;;;4832604;29;19928;-80
2023/10/08 09:34:39;;;;;;;6.47;1.70;;;14.00;99.90;;;;;;4798864;29;20384;-79
2023/10/08 09:37:05;;;;;;;5.72;1.67;;;14.10;99.90;;;;;;4808060;29;20431;-79
2023/10/08 09:39:33;;;;;;;7.93;1.63;;;14.10;99.90;;;;;;4815395;29;20404;-79
2023/10/08 09:42:06;;;;;;;10.65;1.67;;;14.20;99.90;;;;;;4831170;29;20071;-79
2023/10/08 09:44:32;;;;;;;9.88;1.52;;;14.20;99.90;;;;;;4816891;29;20050;-80
2023/10/08 09:47:07;;;;;;;5.22;1.45;;;14.20;99.90;;;;;;4810847;29;20421;-79
2023/10/08 09:49:51;;;;;;;9.80;1.67;;;14.30;99.90;;;;;;4794772;29;20404;-78
2023/10/08 09:52:19;;;;;;;;;;;14.30;99.90;;;;;;4815957;29;20284;-79
2023/10/08 09:54:53;;;;;;;3.75;1.17;;;14.30;99.90;;;;;;4847754;29;20386;-80
2023/10/08 09:57:23;;;;;;;5.32;1.33;;;14.30;99.90;;;;;;4832205;29;20479;-80
2023/10/08 09:59:50;;;;;;;9.73;1.48;;;14.30;99.90;;;;;;4814576;29;20054;-80
2023/10/08 10:02:18;;;;;;;8.18;1.65;;;14.20;99.90;;;;;;4817054;29;20042;-79
2023/10/08 10:04:45;;;;;;;6.30;1.45;;;14.60;99.90;;;;;;4830062;29;20053;-78
2023/10/08 10:07:12;;;;;;;11.65;1.30;;;14.30;99.90;;;;;;4817246;29;20399;-79
2023/10/08 10:09:42;;;;;;;6.85;1.23;;;14.30;99.90;;;;;;4818440;29;20046;-79
2023/10/08 10:12:11;;;;;;;7.78;1.50;;;15.00;99.90;;;;;;4832507;29;20053;-78
2023/10/08 10:14:45;;;;;;;10.15;1.58;;;14.50;99.90;;;;;;4814519;29;20488;-81
2023/10/08 10:17:20;;;;;;;8.65;1.35;;;14.50;99.90;;;;;;4848076;29;20491;-82
2023/10/08 10:19:53;;;;;;;14.60;1.45;;;14.60;99.90;;;;;;4831319;29;20142;-78
2023/10/08 10:22:32;;;;;;;12.05;1.45;;;14.70;99.90;;;;;;4829064;29;20043;-81
2023/10/08 10:25:03;;;;;;;7.25;1.90;;;14.70;99.90;;;;;;4804114;29;20050;-81
2023/10/08 10:27:29;;;;;;;8.32;1.40;;;14.70;99.90;;;;;;4833274;29;20499;-81
2023/10/08 10:30:08;;;;;;;7.03;1.48;;;14.70;99.90;;;;;;4822536;29;20089;-79
2023/10/08 10:32:35;;;;;;;13.13;1.23;;;14.60;99.90;;;;;;4822572;29;20054;-83
2023/10/08 10:35:05;;;;;;;5.30;1.17;;;14.70;99.90;;;;;;4815561;29;20052;-82
2023/10/08 10:37:42;;;;;;;14.55;1.65;;;14.70;99.90;;;;;;4845718;29;20047;-78
2023/10/08 10:40:12;;;;;;;5.97;1.38;;;14.70;99.90;;;;;;4844626;29;20053;-79
2023/10/08 10:42:53;;;;;;;7.05;1.30;;;14.70;99.90;;;;;;4803319;29;20484;-80
2023/10/08 10:45:40;;;;;;;10.88;1.80;;;14.80;99.90;;;;;;4834883;29;20054;-80
2023/10/08 10:51:07;;;;;;;8.00;1.40;;;14.80;99.90;;;;;;4816585;29;20077;-79
2023/10/08 10:53:44;;;;;;;8.65;1.38;;;14.90;99.90;;;;;;4825766;29;20404;-80
2023/10/08 10:56:18;;;;;;;8.95;1.35;;;14.90;99.90;;;;;;4796396;29;20046;-80
2023/10/08 10:58:47;;;;;;;7.97;1.33;;;15.10;99.90;;;;;;4795652;29;20072;-81
2023/10/08 11:01:25;;;;;;;10.55;1.20;;;15.20;99.90;;;;;;4828200;29;20054;-80
2023/10/08 11:03:57;;;;;;;8.95;1.27;;;15.30;99.90;;;;;;4826987;29;20511;-78
2023/10/08 11:06:25;;;;;;;13.40;1.88;;;15.30;99.90;;;;;;4814896;29;20074;-79
2023/10/08 11:08:52;;;;;;;8.13;1.25;;;15.50;99.90;;;;;;4826190;29;20077;-80
2023/10/08 11:11:18;;;;;;;8.57;1.13;;;15.50;99.90;;;;;;4811627;29;20487;-77
2023/10/08 11:13:51;;;;;;;4.35;1.15;;;15.50;99.90;;;;;;4825478;29;20226;-79
2023/10/08 11:16:19;;;;;;;12.60;1.58;;;15.60;99.90;;;;;;4827873;29;20072;-79
2023/10/08 11:18:57;;;;;;;7.88;1.40;;;15.60;99.90;;;;;;4833601;29;20411;-79
2023/10/08 11:21:24;;;;;;;6.05;1.50;;;15.60;99.90;;;;;;4819817;29;20407;-80
2023/10/08 11:23:55;;;;;;;9.80;1.38;;;15.60;99.90;;;;;;4794203;29;20042;-81
2023/10/08 11:26:32;;;;;;;9.80;2.10;;;15.60;99.90;;;;;;4825628;29;20365;-79
2023/10/08 11:29:03;;;;;;;7.70;1.27;;;15.60;99.90;;;;;;4803475;29;20849;-80
2023/10/08 11:31:29;;;;;;;6.13;1.02;;;15.60;99.90;;;;;;4803078;29;20061;-80
2023/10/08 11:34:08;;;;;;;3.95;0.90;;;15.60;99.90;;;;;;4826016;29;20089;-79
2023/10/08 11:36:49;;;;;;;4.82;1.30;;;15.60;99.90;;;;;;4795551;29;20062;-80
2023/10/08 11:39:21;;;;;;;7.00;1.48;;;15.60;99.90;;;;;;4829291;29;20504;-80
2023/10/08 11:42:06;;;;;;;6.68;1.55;;;15.60;99.90;;;;;;4839298;29;20051;-79
2023/10/08 11:44:35;;;;;;;10.60;1.25;;;14.90;99.90;;;;;;4793597;29;20152;-79
2023/10/08 11:47:20;;;;;;;5.65;1.05;;;15.60;99.90;;;;;;4813889;29;20054;-80
2023/10/08 11:50:09;;;;;;;7.22;1.23;;;15.60;99.90;;;;;;4822741;29;20047;-80
2023/10/08 11:52:35;;;;;;;11.48;1.70;;;15.60;99.90;;;;;;4824447;29;20340;-79
2023/10/08 11:55:26;;;;;;;7.18;1.10;;;15.70;99.90;;;;;;4814197;29;20058;-81
2023/10/08 11:58:10;;;;;;;7.93;1.30;;;15.70;99.90;;;;;;4817810;29;20046;-80
2023/10/08 12:00:46;;;;;;;7.03;1.42;;;15.80;99.90;;;;;;4836772;29;20107;-78
2023/10/08 12:03:19;;;;;;;8.27;1.15;;;15.20;99.90;;;;;;4826894;29;20050;-79
2023/10/08 12:05:48;;;;;;;6.60;1.17;;;15.90;99.90;;;;;;4816672;29;20050;-78
2023/10/08 12:08:22;;;;;;;7.82;1.15;;;15.80;99.90;;;;;;4823574;29;20046;-80
2023/10/08 12:10:48;;;;;;;9.85;1.55;;;15.80;99.90;;;;;;4822619;29;20050;-85
2023/10/08 12:13:18;;;;;;;7.22;1.40;;;15.80;99.90;;;;;;4808864;29;20069;-86
2023/10/08 12:15:44;;;;;;;7.75;1.08;;;15.80;99.90;;;;;;4808302;29;20046;-85
2023/10/08 12:18:15;;;;;;;6.50;1.23;;;15.70;99.90;;;;;;4829732;29;20118;-88
2023/10/08 12:20:46;;;;;;;4.90;1.17;;;15.70;99.90;;;;;;4779502;29;20391;-81
2023/10/08 12:23:19;;;;;;;6.95;1.08;;;15.70;99.90;;;;;;4810494;29;21163;-82
2023/10/08 12:25:51;;;;;;;5.40;1.10;;;15.80;99.90;;;;;;4836676;29;20049;-79
2023/10/08 12:28:18;;;;;;;9.75;1.83;;;15.80;99.90;;;;;;4831564;29;20046;-81
2023/10/08 12:30:45;;;;;;;6.10;1.45;;;15.80;99.90;;;;;;4804469;29;20834;-82
2023/10/08 12:33:12;;;;;;;3.33;0.98;;;15.90;99.90;;;;;;4839202;29;20081;-79
2023/10/08 12:35:40;;;;;;;6.47;1.40;;;15.90;99.90;;;;;;4823526;29;20077;-84
2023/10/08 12:38:08;;;;;;;5.13;1.13;;;16.00;99.90;;;;;;4803413;29;20042;-79
2023/10/08 12:40:47;;;;;;;6.97;1.17;;;15.60;99.90;;;;;;4801242;29;20635;-84
2023/10/08 12:43:19;;;;;;;11.48;1.80;;;16.30;99.90;;;;;;4809567;29;20546;-81
2023/10/08 12:45:56;;;;;;;5.88;1.15;;;16.40;99.90;;;;;;4831603;29;20063;-80
2023/10/08 12:48:27;;;;;;;5.57;1.00;;;16.50;99.90;;;;;;4811470;29;20123;-81
2023/10/08 12:51:00;;;;;;;;;;;16.60;99.90;;;;;;4818598;29;20058;-77
2023/10/08 12:53:37;;;;;;;8.18;1.50;;;16.60;99.90;;;;;;4828776;29;20023;-84
2023/10/08 12:56:16;;;;;;;4.18;1.25;;;16.50;99.90;;;;;;4823787;29;20568;-80
2023/10/08 12:58:48;;;;;;;10.00;0.98;;;16.60;99.90;;;;;;4807475;29;20058;-81
2023/10/08 13:01:17;;;;;;;4.65;0.93;;;16.70;99.90;;;;;;4801951;29;20046;-82
2023/10/08 13:03:47;;;;;;;9.68;1.63;;;16.60;99.90;;;;;;4840716;29;20073;-81
2023/10/08 13:06:22;;;;;;;6.40;1.17;;;16.70;99.90;;;;;;4854198;29;20346;-79
2023/10/08 13:08:51;;;;;;;6.45;1.30;;;16.60;99.90;;;;;;4837819;29;20125;-85
2023/10/08 13:11:23;;;;;;;5.82;1.20;;;16.60;99.90;;;;;;4818071;29;20057;-84
2023/10/08 13:13:56;;;;;;;7.68;1.55;;;16.60;99.90;;;;;;4807258;29;20461;-87
2023/10/08 13:16:26;;;;;;;10.77;1.48;;;16.60;99.90;;;;;;4837019;29;20090;-86
2023/10/08 13:18:55;;;;;;;10.70;2.30;;;16.60;99.90;;;;;;4804972;29;20046;-86
2023/10/08 13:21:22;;;;;;;8.07;1.42;;;16.60;99.90;;;;;;4803803;29;20050;-82
2023/10/08 13:23:48;;;;;;;5.95;1.17;;;16.70;99.90;;;;;;4827915;29;20039;-87
2023/10/08 13:26:17;;;;;;;5.97;1.33;;;16.80;99.90;;;;;;4807684;29;20092;-85
2023/10/08 13:28:44;;;;;;;6.45;1.10;;;16.80;99.90;;;;;;4832126;29;20511;-82
2023/10/08 13:31:10;;;;;;;5.10;1.20;;;16.70;99.90;;;;;;4804828;29;20038;-86
2023/10/08 13:33:48;;;;;;;6.15;1.02;;;16.70;99.90;;;;;;4845637;29;20054;-89
2023/10/08 13:36:16;;;;;;;10.02;1.75;;;16.60;99.90;;;;;;4804195;29;20058;-87
2023/10/08 13:38:43;;;;;;;8.05;1.35;;;16.50;99.90;;;;;;4833662;29;20129;-85
2023/10/08 13:41:15;;;;;;;5.85;0.75;;;16.40;99.90;;;;;;4804533;29;20054;-89
2023/10/08 13:43:51;;;;;;;3.40;0.85;;;16.50;99.90;;;;;;4843545;29;20788;-88
2023/10/08 13:46:25;;;;;;;10.95;1.60;;;16.40;99.90;;;;;;4833319;29;20046;-84
2023/10/08 13:48:50;;;;;;;8.20;1.17;;;16.30;99.90;;;;;;4816215;29;20108;-80
2023/10/08 13:51:23;;;;;;;6.10;1.33;;;16.30;99.90;;;;;;4800216;29;20147;-79
2023/10/08 13:53:53;;;;;;;5.88;1.13;;;16.30;99.90;;;;;;4813942;29;20095;-86
2023/10/08 13:56:24;;;;;;;4.35;1.30;;;16.20;99.90;;;;;;4814035;29;20080;-81
2023/10/08 13:58:51;;;;;;;6.60;1.98;;;16.20;99.90;;;;;;4807561;29;20054;-82
2023/10/08 14:01:20;;;;;;;4.47;1.30;;;16.10;99.90;;;;;;4827471;29;20141;-83
2023/10/08 14:03:53;;;;;;;9.55;1.00;;;16.10;99.90;;;;;;4825690;29;20099;-81
2023/10/08 14:06:20;;;;;;;8.95;1.10;;;16.00;99.90;;;;;;4815759;29;20061;-82
2023/10/08 14:08:55;;;;;;;5.07;1.30;;;16.10;99.90;;;;;;4818134;29;20544;-81
2023/10/08 14:11:29;;;;;;;5.85;0.93;;;16.00;99.90;;;;;;4833992;29;20146;-84
2023/10/08 14:14:07;;;;;;;6.53;1.38;;;16.00;99.90;;;;;;4802231;29;20118;-87
2023/10/08 14:16:34;;;;;;;6.38;1.42;;;16.10;99.90;;;;;;4803885;29;20065;-77
2023/10/08 14:19:04;;;;;;;8.30;1.50;;;16.00;99.90;;;;;;4809415;29;20050;-79
2023/10/08 14:21:30;;;;;;;12.65;1.13;;;16.00;99.90;;;;;;4829493;29;20039;-83
2023/10/08 14:24:02;;;;;;;6.45;1.73;;;15.90;99.90;;;;;;4804474;29;20045;-89
2023/10/08 14:26:35;;;;;;;4.95;1.20;;;15.90;99.90;;;;;;4825846;29;20058;-84
2023/10/08 14:29:10;;;;;;;8.05;1.10;;;15.90;99.90;;;;;;4823660;29;20054;-84